Time;durP1;ratioP1;P1;durP2;ratioP2;P2;SDS_P1;SDS_P2;PMS_P1;PMS_P2;Temp;Humidity;BMP_temperature;BMP_pressure;BME280_temperature;BME280_humidity;BME280_pressure;Samples;Min_cycle;Max_cycle;Signal;HPM_P1;HPM_P2
2023/07/25 00:00:49;;;;;;;9.32;2.10;;;;;;;;;;4969887;28;99237;-77
2023/07/25 00:03:16;;;;;;;7.63;2.22;;;;;;;;;;4972559;28;99489;-77
2023/07/25 00:05:42;;;;;;;11.68;2.60;;;;;;;;;;4969911;28;99139;-77
2023/07/25 00:08:08;;;;;;;10.02;2.13;;;;;;;;;;4969444;28;99487;-78
2023/07/25 00:10:35;;;;;;;6.30;2.30;;;;;;;;;;4969580;28;98587;-78
2023/07/25 00:13:01;;;;;;;6.50;1.88;;;;;;;;;;4969040;28;99165;-78
2023/07/25 00:15:27;;;;;;;10.20;2.15;;;;;;;;;;4957457;28;100108;-78
2023/07/25 00:17:54;;;;;;;9.05;2.47;;;;;;;;;;4952964;28;97830;-76
2023/07/25 00:20:20;;;;;;;7.78;2.80;;;;;;;;;;4968672;28;98605;-75
2023/07/25 00:22:47;;;;;;;5.60;2.20;;;;;;;;;;4958191;28;100136;-74
2023/07/25 00:25:13;;;;;;;3.80;2.22;;;;;;;;;;4967573;28;99314;-74
2023/07/25 00:27:40;;;;;;;9.63;2.65;;;;;;;;;;4951663;28;99572;-76
2023/07/25 00:30:06;;;;;;;5.70;2.53;;;;;;;;;;4964705;28;98665;-76
2023/07/25 00:32:33;;;;;;;11.80;2.88;;;;;;;;;;4968442;28;101024;-76
2023/07/25 00:35:00;;;;;;;6.05;2.60;;;;;;;;;;4943828;28;99508;-77
2023/07/25 00:37:27;;;;;;;5.15;2.20;;;;;;;;;;4964077;28;98514;-77
2023/07/25 00:39:54;;;;;;;6.45;2.20;;;;;;;;;;4942299;28;100621;-76
2023/07/25 00:42:20;;;;;;;5.68;2.28;;;;;;;;;;4969674;28;98654;-76
2023/07/25 00:44:46;;;;;;;7.15;2.83;;;;;;;;;;4972472;28;98621;-75
2023/07/25 00:47:14;;;;;;;6.03;2.88;;;;;;;;;;4968851;28;100034;-76
2023/07/25 00:49:41;;;;;;;8.27;2.72;;;;;;;;;;4968853;28;99241;-76
2023/07/25 00:52:08;;;;;;;11.75;2.85;;;;;;;;;;4969088;28;99858;-76
2023/07/25 00:54:38;;;;;;;11.43;2.80;;;;;;;;;;4968596;28;99632;-77
2023/07/25 00:57:05;;;;;;;9.43;2.40;;;;;;;;;;4969439;28;98601;-77
2023/07/25 00:59:31;;;;;;;7.95;2.30;;;;;;;;;;4951843;28;99158;-77
2023/07/25 01:01:58;;;;;;;4.53;2.00;;;;;;;;;;4968759;28;99821;-77
2023/07/25 01:04:24;;;;;;;5.07;2.85;;;;;;;;;;4969657;28;98539;-79
2023/07/25 01:06:52;;;;;;;4.90;2.60;;;;;;;;;;4958353;28;99053;-75
2023/07/25 01:09:37;;;;;;;12.45;2.40;;;;;;;;;;4970458;28;98626;-79
2023/07/25 01:12:04;;;;;;;5.65;2.10;;;;;;;;;;4970945;28;99519;-77
2023/07/25 01:14:31;;;;;;;6.47;2.60;;;;;;;;;;4953730;28;100513;-77
2023/07/25 01:17:05;;;;;;;7.63;2.30;;;;;;;;;;4971408;28;98835;-77
2023/07/25 01:19:33;;;;;;;4.72;2.30;;;;;;;;;;4953631;28;100188;-78
2023/07/25 01:21:59;;;;;;;8.82;2.33;;;;;;;;;;4953186;28;99995;-77
2023/07/25 01:24:26;;;;;;;5.13;2.10;;;;;;;;;;4952724;28;98611;-77
2023/07/25 01:26:52;;;;;;;2.30;2.10;;;;;;;;;;4953794;28;99320;-77
2023/07/25 01:29:19;;;;;;;5.47;2.15;;;;;;;;;;4973662;28;99451;-77
2023/07/25 01:31:45;;;;;;;4.30;2.17;;;;;;;;;;4968362;28;99207;-77
2023/07/25 01:34:12;;;;;;;3.88;2.08;;;;;;;;;;4968239;28;99576;-77
2023/07/25 01:36:38;;;;;;;2.72;1.70;;;;;;;;;;4971786;28;98609;-77
2023/07/25 01:39:04;;;;;;;3.45;2.20;;;;;;;;;;4954623;28;99325;-77
2023/07/25 01:41:31;;;;;;;3.97;2.30;;;;;;;;;;4971748;28;99757;-77
2023/07/25 01:43:58;;;;;;;7.88;2.63;;;;;;;;;;4954341;28;98632;-77
2023/07/25 01:46:24;;;;;;;8.25;2.30;;;;;;;;;;4939718;28;99297;-77
2023/07/25 01:48:50;;;;;;;11.10;2.15;;;;;;;;;;4971360;28;99848;-77
2023/07/25 01:51:17;;;;;;;9.43;2.42;;;;;;;;;;4958093;28;98673;-77
2023/07/25 01:53:43;;;;;;;8.20;2.20;;;;;;;;;;4971427;28;99558;-77
2023/07/25 01:56:10;;;;;;;5.38;2.15;;;;;;;;;;4954957;28;97823;-78
2023/07/25 01:58:36;;;;;;;7.13;2.70;;;;;;;;;;4972439;28;98483;-78
2023/07/25 02:01:02;;;;;;;3.28;2.25;;;;;;;;;;4971744;28;99506;-76
2023/07/25 02:03:29;;;;;;;5.47;2.35;;;;;;;;;;4970750;28;99253;-78
2023/07/25 02:05:55;;;;;;;4.80;2.30;;;;;;;;;;4971931;28;99873;-77
2023/07/25 02:08:22;;;;;;;8.88;2.00;;;;;;;;;;4971813;28;99299;-77
2023/07/25 02:10:48;;;;;;;3.80;2.10;;;;;;;;;;4969382;28;98635;-77
2023/07/25 02:13:14;;;;;;;2.20;2.00;;;;;;;;;;4955660;28;99130;-77
2023/07/25 02:15:41;;;;;;;5.40;1.95;;;;;;;;;;4966975;28;99459;-77
2023/07/25 02:18:07;;;;;;;2.92;1.90;;;;;;;;;;4953258;28;99552;-77
2023/07/25 02:20:33;;;;;;;5.68;2.70;;;;;;;;;;4969377;28;99934;-77
2023/07/25 02:23:00;;;;;;;4.60;2.47;;;;;;;;;;4971169;28;98530;-77
2023/07/25 02:25:26;;;;;;;14.20;2.30;;;;;;;;;;4969725;28;98919;-77
2023/07/25 02:27:52;;;;;;;8.73;2.65;;;;;;;;;;4969267;28;100548;-77
2023/07/25 02:30:20;;;;;;;6.28;2.85;;;;;;;;;;4975328;28;98568;-76
2023/07/25 02:32:46;;;;;;;11.90;2.40;;;;;;;;;;4964418;28;99703;-77
2023/07/25 02:35:14;;;;;;;8.55;2.15;;;;;;;;;;4961245;28;98539;-77
2023/07/25 02:37:40;;;;;;;16.83;2.58;;;;;;;;;;4970363;28;99140;-77
2023/07/25 02:40:07;;;;;;;8.38;2.53;;;;;;;;;;4950206;28;99783;-77
2023/07/25 02:42:34;;;;;;;6.25;2.70;;;;;;;;;;4969956;28;98810;-75
2023/07/25 02:45:00;;;;;;;14.35;2.60;;;;;;;;;;4970399;28;98824;-76
2023/07/25 02:47:27;;;;;;;5.78;2.35;;;;;;;;;;4969948;28;100224;-76
2023/07/25 02:49:53;;;;;;;5.85;2.80;;;;;;;;;;4969052;28;98683;-77
2023/07/25 02:52:19;;;;;;;7.35;2.83;;;;;;;;;;4970128;28;99303;-77
2023/07/25 02:54:46;;;;;;;5.82;2.70;;;;;;;;;;4955467;28;99492;-77
2023/07/25 02:57:12;;;;;;;7.22;2.70;;;;;;;;;;4971215;28;100449;-76
2023/07/25 02:59:38;;;;;;;6.43;3.22;;;;;;;;;;4969160;28;99766;-78
2023/07/25 03:02:06;;;;;;;7.47;2.78;;;;;;;;;;4968292;28;98753;-78
2023/07/25 03:04:33;;;;;;;6.68;2.65;;;;;;;;;;4944739;28;99234;-78
2023/07/25 03:06:59;;;;;;;5.25;2.40;;;;;;;;;;4966731;28;99530;-79
2023/07/25 03:09:26;;;;;;;6.13;2.30;;;;;;;;;;4970086;28;97773;-78
2023/07/25 03:11:52;;;;;;;10.30;2.72;;;;;;;;;;4969395;28;99021;-77
2023/07/25 03:14:19;;;;;;;5.60;2.67;;;;;;;;;;4969089;28;99569;-78
2023/07/25 03:16:45;;;;;;;5.28;2.60;;;;;;;;;;4971891;28;100058;-78
2023/07/25 03:19:12;;;;;;;8.77;2.58;;;;;;;;;;4969713;28;99334;-78
2023/07/25 03:21:38;;;;;;;8.60;2.72;;;;;;;;;;4950686;28;99088;-78
2023/07/25 03:24:05;;;;;;;8.05;2.50;;;;;;;;;;4969285;28;99122;-78
2023/07/25 03:26:31;;;;;;;5.82;2.25;;;;;;;;;;4953154;28;99442;-78
2023/07/25 03:28:57;;;;;;;4.70;2.67;;;;;;;;;;4969411;28;100167;-78
2023/07/25 03:31:24;;;;;;;8.80;2.40;;;;;;;;;;4969314;28;102508;-78
2023/07/25 03:33:50;;;;;;;8.57;2.72;;;;;;;;;;4969831;28;99271;-79
2023/07/25 03:36:17;;;;;;;5.38;2.72;;;;;;;;;;4968241;28;98645;-78
2023/07/25 03:38:43;;;;;;;8.60;2.50;;;;;;;;;;4977676;28;99143;-77
2023/07/25 03:41:09;;;;;;;13.82;2.70;;;;;;;;;;4970613;28;99365;-77
2023/07/25 03:43:36;;;;;;;4.22;2.33;;;;;;;;;;4976519;28;98617;-78
2023/07/25 03:46:03;;;;;;;6.25;3.05;;;;;;;;;;4969231;28;99560;-75
2023/07/25 03:48:31;;;;;;;6.38;2.50;;;;;;;;;;4969119;28;98631;-76
2023/07/25 03:50:58;;;;;;;6.85;2.88;;;;;;;;;;4968100;28;100354;-75
2023/07/25 03:53:24;;;;;;;9.07;2.92;;;;;;;;;;4969679;28;99541;-75
2023/07/25 03:55:51;;;;;;;10.75;2.53;;;;;;;;;;4967893;28;98626;-75
2023/07/25 03:58:17;;;;;;;8.18;3.10;;;;;;;;;;4970588;28;99611;-76
2023/07/25 04:00:43;;;;;;;5.47;2.70;;;;;;;;;;4954222;28;100882;-75
2023/07/25 04:03:10;;;;;;;9.85;3.53;;;;;;;;;;4969161;28;99102;-76
2023/07/25 04:05:41;;;;;;;6.20;2.85;;;;;;;;;;4978709;28;102309;-77
2023/07/25 04:08:07;;;;;;;10.45;2.63;;;;;;;;;;4970368;28;98686;-77
2023/07/25 04:10:33;;;;;;;4.70;2.53;;;;;;;;;;4981883;28;98617;-77
2023/07/25 04:13:00;;;;;;;8.18;2.72;;;;;;;;;;4980593;28;99545;-77
2023/07/25 04:15:26;;;;;;;9.70;2.78;;;;;;;;;;4978883;28;98610;-77
2023/07/25 04:17:52;;;;;;;4.53;2.53;;;;;;;;;;4979390;28;99191;-78
2023/07/25 04:20:19;;;;;;;6.32;2.80;;;;;;;;;;4979427;28;99802;-77
2023/07/25 04:22:45;;;;;;;6.72;2.58;;;;;;;;;;4982111;28;98234;-77
2023/07/25 04:25:12;;;;;;;9.80;3.10;;;;;;;;;;4975419;28;101434;-77
2023/07/25 04:27:38;;;;;;;6.47;2.60;;;;;;;;;;4971291;28;98610;-80
2023/07/25 04:30:05;;;;;;;9.70;2.67;;;;;;;;;;4967019;28;100343;-77
2023/07/25 04:32:31;;;;;;;7.80;2.50;;;;;;;;;;4947538;28;99567;-80
2023/07/25 04:34:58;;;;;;;7.93;2.55;;;;;;;;;;4969176;28;98599;-80
2023/07/25 04:37:25;;;;;;;9.32;2.88;;;;;;;;;;4951163;28;99143;-78
2023/07/25 04:39:51;;;;;;;5.25;2.55;;;;;;;;;;4967837;28;100559;-77
2023/07/25 04:42:17;;;;;;;5.00;2.72;;;;;;;;;;4974449;28;98656;-76
2023/07/25 04:44:44;;;;;;;11.48;2.88;;;;;;;;;;4970654;28;99514;-76
2023/07/25 04:47:11;;;;;;;9.68;2.65;;;;;;;;;;4973429;28;97811;-77
2023/07/25 04:49:37;;;;;;;7.88;2.58;;;;;;;;;;4955140;28;98588;-77
2023/07/25 04:52:04;;;;;;;7.65;2.80;;;;;;;;;;4971737;28;99473;-77
2023/07/25 04:54:30;;;;;;;9.70;2.83;;;;;;;;;;4971987;28;99401;-77
2023/07/25 04:56:56;;;;;;;10.13;2.92;;;;;;;;;;4972369;28;99976;-77
2023/07/25 04:59:23;;;;;;;7.57;2.42;;;;;;;;;;4972479;28;99938;-77
2023/07/25 05:01:49;;;;;;;11.52;2.75;;;;;;;;;;4972933;28;98684;-77
2023/07/25 05:04:15;;;;;;;12.90;2.80;;;;;;;;;;4958571;28;99336;-76
2023/07/25 05:06:42;;;;;;;10.15;2.70;;;;;;;;;;4972294;28;98515;-76
2023/07/25 05:09:08;;;;;;;13.27;2.75;;;;;;;;;;4972707;28;99231;-79
2023/07/25 05:11:35;;;;;;;9.63;2.60;;;;;;;;;;4972192;28;98866;-80
2023/07/25 05:14:01;;;;;;;9.23;2.65;;;;;;;;;;4954874;28;98568;-78
2023/07/25 05:16:28;;;;;;;8.48;3.08;;;;;;;;;;4971788;28;99529;-79
2023/07/25 05:18:54;;;;;;;12.20;2.53;;;;;;;;;;4952575;28;100440;-79
2023/07/25 05:21:20;;;;;;;12.20;3.20;;;;;;;;;;4971956;28;98614;-79
2023/07/25 05:23:47;;;;;;;11.82;3.40;;;;;;;;;;4970686;28;99282;-78
2023/07/25 05:26:13;;;;;;;5.53;2.25;;;;;;;;;;4974339;28;99829;-79
2023/07/25 05:28:39;;;;;;;9.23;2.72;;;;;;;;;;4954102;28;99668;-74
2023/07/25 05:31:07;;;;;;;12.48;3.15;;;;;;;;;;4969998;28;100487;-76
2023/07/25 05:33:33;;;;;;;10.38;2.28;;;;;;;;;;4961539;28;100293;-79
2023/07/25 05:36:01;;;;;;;9.48;2.45;;;;;;;;;;4962068;28;99190;-80
2023/07/25 05:38:27;;;;;;;14.88;3.17;;;;;;;;;;4968434;28;99478;-80
2023/07/25 05:40:55;;;;;;;11.52;2.30;;;;;;;;;;4966469;28;100667;-76
2023/07/25 05:43:21;;;;;;;10.85;2.58;;;;;;;;;;4966899;28;99618;-76
2023/07/25 05:45:47;;;;;;;8.05;2.25;;;;;;;;;;4971231;28;99823;-76
2023/07/25 05:48:14;;;;;;;13.85;2.70;;;;;;;;;;4956669;28;100374;-77
2023/07/25 05:50:40;;;;;;;9.93;2.13;;;;;;;;;;4970614;28;99771;-76
2023/07/25 05:53:07;;;;;;;10.27;3.10;;;;;;;;;;4970675;28;98872;-76
2023/07/25 05:55:33;;;;;;;12.02;2.22;;;;;;;;;;4967243;28;100411;-76
2023/07/25 05:58:00;;;;;;;8.98;2.40;;;;;;;;;;4970860;28;99591;-76
2023/07/25 06:00:26;;;;;;;13.02;2.42;;;;;;;;;;4972037;28;97774;-77
2023/07/25 06:02:52;;;;;;;13.98;2.35;;;;;;;;;;4970023;28;98559;-76
2023/07/25 06:05:19;;;;;;;12.70;2.55;;;;;;;;;;4953448;28;99569;-77
2023/07/25 06:07:45;;;;;;;8.68;2.83;;;;;;;;;;4970256;28;99400;-76
2023/07/25 06:10:11;;;;;;;6.72;2.40;;;;;;;;;;4973595;28;99932;-76
2023/07/25 06:12:38;;;;;;;11.70;2.70;;;;;;;;;;4969843;28;98644;-77
2023/07/25 06:15:04;;;;;;;10.57;2.63;;;;;;;;;;4970735;28;99174;-77
2023/07/25 06:17:31;;;;;;;9.93;2.78;;;;;;;;;;4969250;28;99503;-76
2023/07/25 06:19:57;;;;;;;13.20;3.03;;;;;;;;;;4971181;28;98513;-77
2023/07/25 06:22:24;;;;;;;10.30;2.47;;;;;;;;;;4958152;28;98903;-77
2023/07/25 06:24:50;;;;;;;13.70;2.75;;;;;;;;;;4963763;28;98914;-77
2023/07/25 06:27:16;;;;;;;10.00;2.33;;;;;;;;;;4968101;28;98639;-77
2023/07/25 06:29:43;;;;;;;8.45;2.03;;;;;;;;;;4973813;28;99267;-77
2023/07/25 06:32:09;;;;;;;22.95;2.72;;;;;;;;;;4968827;28;99253;-77
2023/07/25 06:34:38;;;;;;;12.00;1.80;;;;;;;;;;4969887;28;100015;-77
2023/07/25 06:37:05;;;;;;;14.55;2.35;;;;;;;;;;4968121;28;99544;-76
2023/07/25 06:39:31;;;;;;;12.27;2.25;;;;;;;;;;4966652;28;98870;-77
2023/07/25 06:41:57;;;;;;;12.13;2.20;;;;;;;;;;4967239;28;99194;-77
2023/07/25 06:44:24;;;;;;;8.40;1.70;;;;;;;;;;4970476;28;99498;-77
2023/07/25 06:46:50;;;;;;;10.85;2.35;;;;;;;;;;4969079;28;98967;-76
2023/07/25 06:49:16;;;;;;;14.07;2.47;;;;;;;;;;4968119;28;99127;-76
2023/07/25 06:51:43;;;;;;;14.57;2.28;;;;;;;;;;4956428;28;102314;-77
2023/07/25 06:54:12;;;;;;;12.02;2.22;;;;;;;;;;4968447;28;99285;-76
2023/07/25 06:56:38;;;;;;;15.13;1.90;;;;;;;;;;4963615;28;100291;-77
2023/07/25 06:59:05;;;;;;;9.40;1.88;;;;;;;;;;4969357;28;98580;-76
2023/07/25 07:01:31;;;;;;;13.50;2.30;;;;;;;;;;4970568;28;99123;-77
2023/07/25 07:03:59;;;;;;;9.68;1.50;;;;;;;;;;4968906;28;99864;-77
2023/07/25 07:06:26;;;;;;;7.70;1.85;;;;;;;;;;4952171;28;98932;-77
2023/07/25 07:08:52;;;;;;;11.25;1.88;;;;;;;;;;4952245;28;99003;-77
2023/07/25 07:11:18;;;;;;;8.35;1.35;;;;;;;;;;4969911;28;99700;-77
2023/07/25 07:13:45;;;;;;;4.95;1.42;;;;;;;;;;4972291;28;97836;-77
2023/07/25 07:16:11;;;;;;;6.90;1.60;;;;;;;;;;4950788;28;99789;-77
2023/07/25 07:18:38;;;;;;;9.10;1.25;;;;;;;;;;4969858;28;98767;-77
2023/07/25 07:21:05;;;;;;;6.65;1.25;;;;;;;;;;4952500;28;99574;-77
2023/07/25 07:23:31;;;;;;;6.25;1.23;;;;;;;;;;4969492;28;100468;-77
2023/07/25 07:25:57;;;;;;;7.10;1.02;;;;;;;;;;4967918;28;98614;-77
2023/07/25 07:28:24;;;;;;;6.65;1.27;;;;;;;;;;4968891;28;99142;-77
2023/07/25 07:30:50;;;;;;;4.22;1.00;;;;;;;;;;4952123;28;99594;-77
2023/07/25 07:33:18;;;;;;;4.05;0.75;;;;;;;;;;4969749;28;98960;-77
2023/07/25 07:35:44;;;;;;;6.43;0.90;;;;;;;;;;4953158;28;99146;-77
2023/07/25 07:38:11;;;;;;;5.18;0.82;;;;;;;;;;4953568;28;97790;-77
2023/07/25 07:40:38;;;;;;;9.23;1.73;;;;;;;;;;4970481;28;98467;-77
2023/07/25 07:43:04;;;;;;;6.00;1.00;;;;;;;;;;4968559;28;99516;-77
2023/07/25 07:45:31;;;;;;;5.00;1.30;;;;;;;;;;4941126;28;100488;-77
2023/07/25 07:47:57;;;;;;;6.50;0.80;;;;;;;;;;4965190;28;99940;-77
2023/07/25 07:50:24;;;;;;;4.38;0.80;;;;;;;;;;4966771;28;99855;-77
2023/07/25 07:52:50;;;;;;;11.32;1.30;;;;;;;;;;4969761;28;98985;-77
2023/07/25 07:55:16;;;;;;;6.43;0.82;;;;;;;;;;4967893;28;99164;-77
2023/07/25 07:57:43;;;;;;;3.92;0.80;;;;;;;;;;4972296;28;99858;-77
2023/07/25 08:00:11;;;;;;;5.97;1.30;;;;;;;;;;4950562;28;99157;-76
2023/07/25 08:02:38;;;;;;;5.40;1.20;;;;;;;;;;4968401;28;98818;-76
2023/07/25 08:05:04;;;;;;;6.47;1.00;;;;;;;;;;4968425;28;98711;-76
2023/07/25 08:07:31;;;;;;;4.40;1.00;;;;;;;;;;4970347;28;100891;-76
2023/07/25 08:09:57;;;;;;;4.28;0.88;;;;;;;;;;4967067;28;103955;-77
2023/07/25 08:12:24;;;;;;;2.85;0.77;;;;;;;;;;4968249;28;98821;-77
2023/07/25 08:14:51;;;;;;;5.50;1.00;;;;;;;;;;4969594;28;98831;-74
2023/07/25 08:17:17;;;;;;;5.15;0.90;;;;;;;;;;4951724;28;99539;-77
2023/07/25 08:19:44;;;;;;;8.43;1.10;;;;;;;;;;4973523;28;100704;-78
2023/07/25 08:22:10;;;;;;;5.40;1.25;;;;;;;;;;4972877;28;99584;-78
2023/07/25 08:24:37;;;;;;;6.82;0.88;;;;;;;;;;4971816;28;98739;-77
2023/07/25 08:27:04;;;;;;;4.57;0.93;;;;;;;;;;4970130;28;99183;-77
2023/07/25 08:29:30;;;;;;;4.47;1.10;;;;;;;;;;4954255;28;99720;-79
2023/07/25 08:31:57;;;;;;;3.20;1.02;;;;;;;;;;4953664;28;98605;-79
2023/07/25 08:34:23;;;;;;;6.47;0.60;;;;;;;;;;4971854;28;99593;-80
2023/07/25 08:36:50;;;;;;;2.67;0.73;;;;;;;;;;4970763;28;99950;-79
2023/07/25 08:39:16;;;;;;;7.22;1.42;;;;;;;;;;4975205;28;98728;-79
2023/07/25 08:41:44;;;;;;;2.25;0.63;;;;;;;;;;4971090;28;99502;-79
2023/07/25 08:44:11;;;;;;;3.10;0.98;;;;;;;;;;4952642;28;98628;-79
2023/07/25 08:46:44;;;;;;;3.35;0.70;;;;;;;;;;4955408;28;99122;-79
2023/07/25 08:49:11;;;;;;;6.50;0.90;;;;;;;;;;4970750;28;99451;-79
2023/07/25 08:51:40;;;;;;;5.88;0.73;;;;;;;;;;4972743;28;97823;-79
2023/07/25 08:54:06;;;;;;;6.15;0.90;;;;;;;;;;4971109;28;100002;-79
2023/07/25 08:56:34;;;;;;;7.97;0.77;;;;;;;;;;4952970;28;100397;-79
2023/07/25 08:59:02;;;;;;;1.65;0.75;;;;;;;;;;4972015;28;99325;-79
2023/07/25 09:01:28;;;;;;;2.70;0.55;;;;;;;;;;4958013;28;100951;-79
2023/07/25 09:03:56;;;;;;;5.75;1.42;;;;;;;;;;4970091;28;99927;-79
2023/07/25 09:06:23;;;;;;;1.50;0.73;;;;;;;;;;4970781;28;99164;-79
2023/07/25 09:08:49;;;;;;;5.95;0.75;;;;;;;;;;4971571;28;99486;-77
2023/07/25 09:11:18;;;;;;;2.30;0.50;;;;;;;;;;4952885;28;98683;-76
2023/07/25 09:13:45;;;;;;;4.90;1.00;;;;;;;;;;4966394;28;99172;-77
2023/07/25 09:16:11;;;;;;;2.30;0.70;;;;;;;;;;4970033;28;98130;-77
2023/07/25 09:18:40;;;;;;;6.55;0.82;;;;;;;;;;4972328;28;98732;-76
2023/07/25 09:21:07;;;;;;;2.10;0.63;;;;;;;;;;4971869;28;99166;-77
2023/07/25 09:23:34;;;;;;;1.90;0.65;;;;;;;;;;4971099;28;100752;-77
2023/07/25 09:26:04;;;;;;;9.40;0.75;;;;;;;;;;4967845;28;100601;-77
2023/07/25 09:28:31;;;;;;;3.17;1.08;;;;;;;;;;4962241;28;100570;-77
2023/07/25 09:31:01;;;;;;;6.32;1.00;;;;;;;;;;4953692;28;98538;-77
2023/07/25 09:33:27;;;;;;;6.13;1.30;;;;;;;;;;4971133;28;99865;-77
2023/07/25 09:35:54;;;;;;;3.08;0.80;;;;;;;;;;4969704;28;99500;-77
2023/07/25 09:38:20;;;;;;;1.25;0.60;;;;;;;;;;4972039;28;98609;-77
2023/07/25 09:40:47;;;;;;;2.10;0.80;;;;;;;;;;4953887;28;99184;-77
2023/07/25 09:43:20;;;;;;;3.58;0.70;;;;;;;;;;4968690;28;99493;-77
2023/07/25 09:45:46;;;;;;;4.47;0.57;;;;;;;;;;4972140;28;98640;-76
2023/07/25 09:48:14;;;;;;;2.65;0.77;;;;;;;;;;4970924;28;100625;-77
2023/07/25 09:50:44;;;;;;;3.55;0.70;;;;;;;;;;4971687;28;98535;-77
2023/07/25 09:53:16;;;;;;;3.45;1.15;;;;;;;;;;4966715;28;99163;-77
2023/07/25 09:55:44;;;;;;;3.17;0.82;;;;;;;;;;4966654;28;99876;-77
2023/07/25 09:58:10;;;;;;;4.40;0.93;;;;;;;;;;4969323;28;100343;-77
2023/07/25 10:00:37;;;;;;;2.30;0.55;;;;;;;;;;4953125;28;99186;-77
2023/07/25 10:03:04;;;;;;;2.00;0.80;;;;;;;;;;4970019;28;99531;-77
2023/07/25 10:05:30;;;;;;;2.47;0.50;;;;;;;;;;4970031;28;98162;-77
2023/07/25 10:07:59;;;;;;;1.48;0.52;;;;;;;;;;4972889;28;98502;-77
2023/07/25 10:10:26;;;;;;;4.32;0.85;;;;;;;;;;4971988;28;98545;-77
2023/07/25 10:12:53;;;;;;;2.17;0.60;;;;;;;;;;4952181;28;99275;-77
2023/07/25 10:15:20;;;;;;;2.40;0.68;;;;;;;;;;4969395;28;99576;-77
2023/07/25 10:17:47;;;;;;;7.65;1.30;;;;;;;;;;4968927;28;98834;-77
2023/07/25 10:20:22;;;;;;;2.95;0.63;;;;;;;;;;4953907;28;99304;-77
2023/07/25 10:22:50;;;;;;;6.63;0.77;;;;;;;;;;4968426;28;99445;-77
2023/07/25 10:25:28;;;;;;;2.08;0.57;;;;;;;;;;4968348;28;98707;-77
2023/07/25 10:27:57;;;;;;;3.97;0.70;;;;;;;;;;4967612;28;99161;-78
2023/07/25 10:30:25;;;;;;;9.25;0.82;;;;;;;;;;4970627;28;98739;-78
2023/07/25 10:32:56;;;;;;;2.90;0.80;;;;;;;;;;4970457;28;98663;-78
2023/07/25 10:35:42;;;;;;;6.55;0.93;;;;;;;;;;4966455;28;100294;-77
2023/07/25 10:38:09;;;;;;;2.88;0.85;;;;;;;;;;4949161;28;99544;-77
2023/07/25 10:41:05;;;;;;;5.65;1.10;;;;;;;;;;4951340;28;99861;-77
2023/07/25 10:43:55;;;;;;;4.28;0.77;;;;;;;;;;4946928;28;99985;-77
2023/07/25 10:46:22;;;;;;;2.60;1.05;;;;;;;;;;4970585;28;98497;-76
2023/07/25 10:48:50;;;;;;;5.00;1.00;;;;;;;;;;4970177;28;99333;-77
2023/07/25 10:51:17;;;;;;;8.10;0.90;;;;;;;;;;4972407;28;100048;-76
2023/07/25 10:54:02;;;;;;;5.40;0.60;;;;;;;;;;4951626;28;100579;-77
2023/07/25 10:56:29;;;;;;;2.38;0.70;;;;;;;;;;4965623;28;98674;-77
2023/07/25 10:59:04;;;;;;;7.70;0.73;;;;;;;;;;4963904;28;99032;-76
2023/07/25 11:01:36;;;;;;;7.18;1.00;;;;;;;;;;4965889;28;99237;-77
2023/07/25 11:04:19;;;;;;;3.47;0.70;;;;;;;;;;4951302;28;100455;-77
2023/07/25 11:06:46;;;;;;;3.40;0.70;;;;;;;;;;4965481;28;98913;-77
2023/07/25 11:09:13;;;;;;;3.70;0.68;;;;;;;;;;4953608;28;99467;-77
2023/07/25 11:11:45;;;;;;;3.03;0.77;;;;;;;;;;4952692;28;99464;-77
2023/07/25 11:14:14;;;;;;;3.42;0.80;;;;;;;;;;4972394;28;98944;-76
2023/07/25 11:16:42;;;;;;;6.03;1.00;;;;;;;;;;4969322;28;99852;-77
2023/07/25 11:19:09;;;;;;;5.57;1.33;;;;;;;;;;4969468;28;98538;-76
2023/07/25 11:21:39;;;;;;;0.55;0.50;;;;;;;;;;4970851;28;99413;-76
2023/07/25 11:24:06;;;;;;;1.27;0.68;;;;;;;;;;4969125;28;99525;-77
2023/07/25 11:26:34;;;;;;;5.85;1.00;;;;;;;;;;4969128;28;98557;-76
2023/07/25 11:29:04;;;;;;;4.22;1.05;;;;;;;;;;4951044;28;100004;-77
2023/07/25 11:31:31;;;;;;;6.55;0.80;;;;;;;;;;4952311;28;101420;-77
2023/07/25 11:34:07;;;;;;;8.95;1.38;;;;;;;;;;4944179;28;98582;-77
2023/07/25 11:36:35;;;;;;;1.05;0.70;;;;;;;;;;4968675;28;99520;-77
2023/07/25 11:39:01;;;;;;;3.00;0.70;;;;;;;;;;4950166;28;99905;-76
2023/07/25 11:41:28;;;;;;;3.92;0.70;;;;;;;;;;4969032;28;99177;-77
2023/07/25 11:43:55;;;;;;;4.22;1.05;;;;;;;;;;4967600;28;99874;-76
2023/07/25 11:46:21;;;;;;;7.60;1.00;;;;;;;;;;4952771;28;98068;-76
2023/07/25 11:48:48;;;;;;;10.45;1.13;;;;;;;;;;4951078;28;98587;-76
2023/07/25 11:51:15;;;;;;;3.90;0.88;;;;;;;;;;4969015;28;99482;-76
2023/07/25 11:53:42;;;;;;;1.60;0.80;;;;;;;;;;4966644;28;100248;-76
2023/07/25 11:56:08;;;;;;;5.25;1.35;;;;;;;;;;4951364;28;100008;-76
2023/07/25 11:58:35;;;;;;;4.22;1.08;;;;;;;;;;4953896;28;99100;-76
2023/07/25 12:01:01;;;;;;;6.55;1.15;;;;;;;;;;4969310;28;99256;-77
2023/07/25 12:03:28;;;;;;;8.20;1.45;;;;;;;;;;4968111;28;99451;-76
2023/07/25 12:05:54;;;;;;;5.93;0.75;;;;;;;;;;4951712;28;98653;-78
2023/07/25 12:08:39;;;;;;;5.80;1.00;;;;;;;;;;4968824;28;99117;-77
2023/07/25 12:11:10;;;;;;;5.22;0.77;;;;;;;;;;4967140;28;98809;-77
2023/07/25 12:13:47;;;;;;;7.75;0.80;;;;;;;;;;4968063;28;98659;-77
2023/07/25 12:16:42;;;;;;;5.32;0.90;;;;;;;;;;4968747;28;99180;-78
2023/07/25 12:19:10;;;;;;;5.18;1.30;;;;;;;;;;4945834;28;100123;-78
2023/07/25 12:21:37;;;;;;;5.05;1.00;;;;;;;;;;4948773;28;98647;-78
2023/07/25 12:24:05;;;;;;;7.55;1.23;;;;;;;;;;4969088;28;99437;-77
2023/07/25 12:26:44;;;;;;;7.03;1.10;;;;;;;;;;4952285;28;98589;-76
2023/07/25 12:29:15;;;;;;;4.57;1.17;;;;;;;;;;4950551;28;99124;-75
2023/07/25 12:31:41;;;;;;;6.70;0.80;;;;;;;;;;4966965;28;99690;-75
2023/07/25 12:34:08;;;;;;;5.65;1.08;;;;;;;;;;4967572;28;98570;-77
2023/07/25 12:36:34;;;;;;;3.70;1.00;;;;;;;;;;4952335;28;99139;-73
2023/07/25 12:39:00;;;;;;;5.05;0.80;;;;;;;;;;4966012;28;100600;-74
2023/07/25 12:41:27;;;;;;;1.92;0.55;;;;;;;;;;4962514;28;98552;-75
2023/07/25 12:43:53;;;;;;;6.95;1.00;;;;;;;;;;4971770;28;99385;-74
2023/07/25 12:46:20;;;;;;;3.33;0.80;;;;;;;;;;4967516;28;98548;-74
2023/07/25 12:48:46;;;;;;;4.47;1.02;;;;;;;;;;4966085;28;100115;-74
2023/07/25 12:51:12;;;;;;;5.55;0.85;;;;;;;;;;4949526;28;100193;-75
2023/07/25 12:53:39;;;;;;;3.45;0.77;;;;;;;;;;4969290;28;98790;-74
2023/07/25 12:56:07;;;;;;;2.50;0.55;;;;;;;;;;4964523;28;99611;-74
2023/07/25 12:58:33;;;;;;;3.60;0.95;;;;;;;;;;4966830;28;99506;-74
2023/07/25 13:01:00;;;;;;;1.65;0.57;;;;;;;;;;4971072;28;97753;-74
2023/07/25 13:03:26;;;;;;;1.15;0.50;;;;;;;;;;4975192;28;98595;-75
2023/07/25 13:05:53;;;;;;;5.35;0.60;;;;;;;;;;4953325;28;100247;-75
2023/07/25 13:08:20;;;;;;;4.35;0.77;;;;;;;;;;4969777;28;100144;-76
2023/07/25 13:10:47;;;;;;;2.33;0.50;;;;;;;;;;4972175;28;99425;-76
2023/07/25 13:13:13;;;;;;;1.90;0.60;;;;;;;;;;4972352;28;98522;-76
2023/07/25 13:15:41;;;;;;;7.38;0.85;;;;;;;;;;4971197;28;99130;-75
2023/07/25 13:18:08;;;;;;;1.55;0.47;;;;;;;;;;4969876;28;99461;-75
2023/07/25 13:20:34;;;;;;;2.88;0.45;;;;;;;;;;4971035;28;98546;-76
2023/07/25 13:23:00;;;;;;;2.20;0.32;;;;;;;;;;4971499;28;99210;-76
2023/07/25 13:25:27;;;;;;;0.90;0.45;;;;;;;;;;4972879;28;98811;-76
2023/07/25 13:27:53;;;;;;;2.42;0.50;;;;;;;;;;4954565;28;98688;-76
2023/07/25 13:30:19;;;;;;;2.40;0.70;;;;;;;;;;4954046;28;99489;-76
2023/07/25 13:32:46;;;;;;;2.45;0.50;;;;;;;;;;4971267;28;99319;-76
2023/07/25 13:35:12;;;;;;;3.17;0.50;;;;;;;;;;4971138;28;99824;-76
2023/07/25 13:37:39;;;;;;;2.03;0.55;;;;;;;;;;4970021;28;99465;-76
2023/07/25 13:40:06;;;;;;;0.75;0.50;;;;;;;;;;4970339;28;98731;-76
2023/07/25 13:42:32;;;;;;;0.90;0.40;;;;;;;;;;4958695;28;98513;-76
2023/07/25 13:44:58;;;;;;;5.22;0.60;;;;;;;;;;4967026;28;102495;-76
2023/07/25 13:47:25;;;;;;;0.88;0.35;;;;;;;;;;4967079;28;98644;-76
2023/07/25 13:49:52;;;;;;;0.52;0.40;;;;;;;;;;4943981;28;98992;-76
2023/07/25 13:52:19;;;;;;;1.45;0.47;;;;;;;;;;4967920;28;98886;-76
2023/07/25 13:54:45;;;;;;;1.08;0.40;;;;;;;;;;4970528;28;99526;-76
2023/07/25 13:57:12;;;;;;;3.67;0.50;;;;;;;;;;4968315;28;100260;-76
2023/07/25 13:59:38;;;;;;;1.23;0.40;;;;;;;;;;4968354;28;99122;-76
2023/07/25 14:02:04;;;;;;;3.88;0.47;;;;;;;;;;4971065;28;99260;-76
2023/07/25 14:04:31;;;;;;;2.50;0.65;;;;;;;;;;4953751;28;99511;-76
2023/07/25 14:06:57;;;;;;;4.13;0.57;;;;;;;;;;4969601;28;98902;-76
2023/07/25 14:09:24;;;;;;;3.30;1.02;;;;;;;;;;4973084;28;99527;-76
2023/07/25 14:11:50;;;;;;;2.35;1.00;;;;;;;;;;4969952;28;98520;-77
2023/07/25 14:14:17;;;;;;;2.33;0.60;;;;;;;;;;4971331;28;99132;-76
2023/07/25 14:16:43;;;;;;;3.03;1.40;;;;;;;;;;4950050;28;100101;-76
2023/07/25 14:19:10;;;;;;;7.03;1.00;;;;;;;;;;4950436;28;99215;-77
2023/07/25 14:21:36;;;;;;;1.83;0.63;;;;;;;;;;4970482;28;99803;-75
2023/07/25 14:24:03;;;;;;;4.85;0.68;;;;;;;;;;4970741;28;99473;-77
2023/07/25 14:26:30;;;;;;;1.75;0.75;;;;;;;;;;4971155;28;98524;-77
2023/07/25 14:29:02;;;;;;;4.10;0.60;;;;;;;;;;4952372;28;99285;-77
2023/07/25 14:31:29;;;;;;;3.17;0.60;;;;;;;;;;4972056;28;99511;-77
2023/07/25 14:33:57;;;;;;;2.70;0.60;;;;;;;;;;4971557;28;98939;-76
2023/07/25 14:36:25;;;;;;;0.50;0.32;;;;;;;;;;4969293;28;99453;-76
2023/07/25 14:38:51;;;;;;;3.58;0.63;;;;;;;;;;4971828;28;97816;-76